sensor_id;sensor_type;location;lat;lon;timestamp;pressure;altitude;pressure_sealevel;temperature;humidity
25947;BME280;13745;51.470;9.894;2023-03-12T00:01:52;98970.94;;;4.54;50.85
25947;BME280;13745;51.470;9.894;2023-03-12T00:04:37;98976.94;;;4.55;50.63
25947;BME280;13745;51.470;9.894;2023-03-12T00:07:22;98976.94;;;4.55;50.80
25947;BME280;13745;51.470;9.894;2023-03-12T00:10:10;98982.06;;;4.53;50.82
25947;BME280;13745;51.470;9.894;2023-03-12T00:12:55;98982.91;;;4.54;50.89
25947;BME280;13745;51.470;9.894;2023-03-12T00:15:40;98981.22;;;4.53;50.94
25947;BME280;13745;51.470;9.894;2023-03-12T00:18:25;98989.75;;;4.51;50.99
25947;BME280;13745;51.470;9.894;2023-03-12T00:21:10;98995.75;;;4.52;50.71
25947;BME280;13745;51.470;9.894;2023-03-12T00:23:56;98985.47;;;4.49;51.00
25947;BME280;13745;51.470;9.894;2023-03-12T00:26:42;98993.19;;;4.49;50.76
25947;BME280;13745;51.470;9.894;2023-03-12T00:29:27;98988.06;;;4.47;50.82
25947;BME280;13745;51.470;9.894;2023-03-12T00:32:12;98995.75;;;4.47;51.03
25947;BME280;13745;51.470;9.894;2023-03-12T00:34:58;98993.16;;;4.46;50.84
25947;BME280;13745;51.470;9.894;2023-03-12T00:37:43;98998.28;;;4.46;51.27
25947;BME280;13745;51.470;9.894;2023-03-12T00:40:28;98999.13;;;4.45;51.14
25947;BME280;13745;51.470;9.894;2023-03-12T00:43:14;98990.59;;;4.44;50.98
25947;BME280;13745;51.470;9.894;2023-03-12T00:45:59;98989.72;;;4.42;50.79
25947;BME280;13745;51.470;9.894;2023-03-12T00:48:44;98996.56;;;4.42;51.39
25947;BME280;13745;51.470;9.894;2023-03-12T00:51:30;98996.56;;;4.40;51.11
25947;BME280;13745;51.470;9.894;2023-03-12T00:54:15;98992.28;;;4.41;51.04
25947;BME280;13745;51.470;9.894;2023-03-12T00:57:00;98988.00;;;4.40;51.08
25947;BME280;13745;51.470;9.894;2023-03-12T00:59:46;98981.13;;;4.37;51.39
25947;BME280;13745;51.470;9.894;2023-03-12T01:02:32;98984.59;;;4.39;51.22
25947;BME280;13745;51.470;9.894;2023-03-12T01:05:17;98986.25;;;4.36;51.42
25947;BME280;13745;51.470;9.894;2023-03-12T01:08:03;98977.72;;;4.35;51.34
25947;BME280;13745;51.470;9.894;2023-03-12T01:10:48;98993.09;;;4.35;51.52
25947;BME280;13745;51.470;9.894;2023-03-12T01:13:33;98990.53;;;4.35;51.39
25947;BME280;13745;51.470;9.894;2023-03-12T01:16:20;98987.97;;;4.34;51.72
25947;BME280;13745;51.470;9.894;2023-03-12T01:19:05;98981.09;;;4.30;52.21
25947;BME280;13745;51.470;9.894;2023-03-12T01:21:50;98982.81;;;4.29;51.63
25947;BME280;13745;51.470;9.894;2023-03-12T01:24:35;98974.25;;;4.27;51.75
25947;BME280;13745;51.470;9.894;2023-03-12T01:27:20;98969.97;;;4.26;51.63
25947;BME280;13745;51.470;9.894;2023-03-12T01:30:06;98975.09;;;4.26;51.69
25947;BME280;13745;51.470;9.894;2023-03-12T01:32:53;98968.25;;;4.27;51.85
25947;BME280;13745;51.470;9.894;2023-03-12T01:35:39;98969.97;;;4.26;51.81
25947;BME280;13745;51.470;9.894;2023-03-12T01:38:24;98970.84;;;4.28;51.86
25947;BME280;13745;51.470;9.894;2023-03-12T01:41:09;98971.69;;;4.27;51.98
25947;BME280;13745;51.470;9.894;2023-03-12T01:43:54;98975.09;;;4.28;51.98
25947;BME280;13745;51.470;9.894;2023-03-12T01:46:41;98969.97;;;4.26;52.18
25947;BME280;13745;51.470;9.894;2023-03-12T01:49:32;98971.69;;;4.24;52.10
25947;BME280;13745;51.470;9.894;2023-03-12T01:52:19;98978.53;;;4.25;52.28
25947;BME280;13745;51.470;9.894;2023-03-12T01:55:12;98969.13;;;4.22;52.07
25947;BME280;13745;51.470;9.894;2023-03-12T01:58:01;98963.13;;;4.25;51.93
25947;BME280;13745;51.470;9.894;2023-03-12T02:00:47;98956.28;;;4.22;52.13
25947;BME280;13745;51.470;9.894;2023-03-12T02:03:32;98955.44;;;4.22;52.16
25947;BME280;13745;51.470;9.894;2023-03-12T02:06:24;98962.25;;;4.21;52.03
25947;BME280;13745;51.470;9.894;2023-03-12T02:09:12;98964.00;;;4.24;51.90
25947;BME280;13745;51.470;9.894;2023-03-12T02:11:57;98964.84;;;4.23;52.15
25947;BME280;13745;51.470;9.894;2023-03-12T02:14:43;98959.72;;;4.25;52.25
25947;BME280;13745;51.470;9.894;2023-03-12T02:17:28;98958.84;;;4.26;52.26
25947;BME280;13745;51.470;9.894;2023-03-12T02:20:16;98955.44;;;4.27;52.18
25947;BME280;13745;51.470;9.894;2023-03-12T02:23:09;98952.03;;;4.29;52.38
25947;BME280;13745;51.470;9.894;2023-03-12T02:25:57;98953.72;;;4.30;52.29
25947;BME280;13745;51.470;9.894;2023-03-12T02:28:43;98954.63;;;4.34;52.44
25947;BME280;13745;51.470;9.894;2023-03-12T02:31:34;98959.75;;;4.35;52.40
25947;BME280;13745;51.470;9.894;2023-03-12T02:34:21;98958.03;;;4.36;52.46
25947;BME280;13745;51.470;9.894;2023-03-12T02:37:06;98965.75;;;4.36;52.67
25947;BME280;13745;51.470;9.894;2023-03-12T02:39:56;98952.91;;;4.34;52.55
25947;BME280;13745;51.470;9.894;2023-03-12T02:42:45;98952.91;;;4.37;52.69
25947;BME280;13745;51.470;9.894;2023-03-12T02:45:31;98941.78;;;4.35;52.51
25947;BME280;13745;51.470;9.894;2023-03-12T02:48:17;98945.22;;;4.34;52.36
25947;BME280;13745;51.470;9.894;2023-03-12T02:51:03;98947.78;;;4.33;52.65
25947;BME280;13745;51.470;9.894;2023-03-12T02:53:48;98946.06;;;4.33;53.04
25947;BME280;13745;51.470;9.894;2023-03-12T02:56:38;98947.78;;;4.31;52.68
25947;BME280;13745;51.470;9.894;2023-03-12T02:59:25;98946.03;;;4.29;52.70
25947;BME280;13745;51.470;9.894;2023-03-12T03:02:12;98945.19;;;4.28;52.85
25947;BME280;13745;51.470;9.894;2023-03-12T03:04:58;98948.59;;;4.26;53.02
25947;BME280;13745;51.470;9.894;2023-03-12T03:07:43;98946.03;;;4.26;53.21
25947;BME280;13745;51.470;9.894;2023-03-12T03:10:28;98954.59;;;4.23;52.82
25947;BME280;13745;51.470;9.894;2023-03-12T03:13:13;98946.88;;;4.23;53.10
25947;BME280;13745;51.470;9.894;2023-03-12T03:15:59;98948.56;;;4.21;53.44
25947;BME280;13745;51.470;9.894;2023-03-12T03:18:45;98954.53;;;4.21;53.27
25947;BME280;13745;51.470;9.894;2023-03-12T03:21:31;98946.84;;;4.20;53.33
25947;BME280;13745;51.470;9.894;2023-03-12T03:24:16;98951.13;;;4.21;53.53
25947;BME280;13745;51.470;9.894;2023-03-12T03:27:01;98948.56;;;4.19;53.42
25947;BME280;13745;51.470;9.894;2023-03-12T03:29:46;98948.56;;;4.21;53.44
25947;BME280;13745;51.470;9.894;2023-03-12T03:32:34;98951.97;;;4.18;53.44
25947;BME280;13745;51.470;9.894;2023-03-12T03:35:19;98953.69;;;4.18;53.31
25947;BME280;13745;51.470;9.894;2023-03-12T03:38:05;98956.25;;;4.18;53.58
25947;BME280;13745;51.470;9.894;2023-03-12T03:40:52;98956.25;;;4.15;53.47
25947;BME280;13745;51.470;9.894;2023-03-12T03:43:37;98956.22;;;4.13;53.51
25947;BME280;13745;51.470;9.894;2023-03-12T03:46:24;98951.09;;;4.12;53.65
25947;BME280;13745;51.470;9.894;2023-03-12T03:49:16;98957.06;;;4.11;53.56
25947;BME280;13745;51.470;9.894;2023-03-12T03:52:01;98955.34;;;4.10;53.64
25947;BME280;13745;51.470;9.894;2023-03-12T03:54:51;98955.34;;;4.08;53.95
25947;BME280;13745;51.470;9.894;2023-03-12T03:57:37;98966.47;;;4.06;53.66
25947;BME280;13745;51.470;9.894;2023-03-12T04:00:23;98954.44;;;4.03;53.65
25947;BME280;13745;51.470;9.894;2023-03-12T04:03:09;98962.16;;;4.03;53.74
25947;BME280;13745;51.470;9.894;2023-03-12T04:05:58;98948.47;;;3.98;54.11
25947;BME280;13745;51.470;9.894;2023-03-12T04:08:43;98951.84;;;3.97;53.72
25947;BME280;13745;51.470;9.894;2023-03-12T04:11:31;98939.88;;;3.93;54.11
25947;BME280;13745;51.470;9.894;2023-03-12T04:14:18;98943.28;;;3.90;53.95
25947;BME280;13745;51.470;9.894;2023-03-12T04:17:03;98943.25;;;3.87;53.99
25947;BME280;13745;51.470;9.894;2023-03-12T04:19:48;98934.69;;;3.84;54.19
25947;BME280;13745;51.470;9.894;2023-03-12T04:22:35;98932.13;;;3.82;54.51
25947;BME280;13745;51.470;9.894;2023-03-12T04:25:20;98941.53;;;3.82;54.39
25947;BME280;13745;51.470;9.894;2023-03-12T04:28:05;98936.34;;;3.77;54.43
25947;BME280;13745;51.470;9.894;2023-03-12T04:30:55;98946.59;;;3.74;54.46
25947;BME280;13745;51.470;9.894;2023-03-12T04:33:42;98942.31;;;3.73;54.74
25947;BME280;13745;51.470;9.894;2023-03-12T04:36:27;98936.34;;;3.73;54.69
25947;BME280;13745;51.470;9.894;2023-03-12T04:39:17;98937.16;;;3.70;54.62
25947;BME280;13745;51.470;9.894;2023-03-12T04:42:04;98931.16;;;3.68;54.85
25947;BME280;13745;51.470;9.894;2023-03-12T04:44:49;98929.47;;;3.65;54.81
25947;BME280;13745;51.470;9.894;2023-03-12T04:47:35;98926.00;;;3.63;55.38
25947;BME280;13745;51.470;9.894;2023-03-12T04:50:20;98936.25;;;3.63;55.17
25947;BME280;13745;51.470;9.894;2023-03-12T04:53:05;98924.28;;;3.62;55.40
25947;BME280;13745;51.470;9.894;2023-03-12T04:55:51;98937.09;;;3.62;55.37
25947;BME280;13745;51.470;9.894;2023-03-12T04:58:36;98927.72;;;3.63;55.07
25947;BME280;13745;51.470;9.894;2023-03-12T05:01:24;98924.28;;;3.62;55.46
25947;BME280;13745;51.470;9.894;2023-03-12T05:04:10;98922.56;;;3.61;55.44
25947;BME280;13745;51.470;9.894;2023-03-12T05:06:55;98925.13;;;3.60;55.72
25947;BME280;13745;51.470;9.894;2023-03-12T05:09:40;98927.69;;;3.60;55.60
25947;BME280;13745;51.470;9.894;2023-03-12T05:12:28;98920.84;;;3.59;55.67
25947;BME280;13745;51.470;9.894;2023-03-12T05:15:13;98917.44;;;3.60;55.53
25947;BME280;13745;51.470;9.894;2023-03-12T05:18:00;98913.19;;;3.60;55.48
25947;BME280;13745;51.470;9.894;2023-03-12T05:20:46;98920.88;;;3.60;55.60
25947;BME280;13745;51.470;9.894;2023-03-12T05:23:31;98915.75;;;3.60;55.46
25947;BME280;13745;51.470;9.894;2023-03-12T05:26:19;98916.59;;;3.59;55.48
25947;BME280;13745;51.470;9.894;2023-03-12T05:29:05;98915.75;;;3.60;55.44
25947;BME280;13745;51.470;9.894;2023-03-12T05:31:51;98917.44;;;3.61;55.37
25947;BME280;13745;51.470;9.894;2023-03-12T05:34:36;98911.47;;;3.61;55.32
25947;BME280;13745;51.470;9.894;2023-03-12T05:37:21;98909.75;;;3.61;55.50
25947;BME280;13745;51.470;9.894;2023-03-12T05:40:09;98907.22;;;3.61;55.86
25947;BME280;13745;51.470;9.894;2023-03-12T05:42:54;98909.78;;;3.63;55.75
25947;BME280;13745;51.470;9.894;2023-03-12T05:45:44;98911.47;;;3.64;55.77
25947;BME280;13745;51.470;9.894;2023-03-12T05:48:30;98906.41;;;3.67;55.56
25947;BME280;13745;51.470;9.894;2023-03-12T05:51:15;98913.25;;;3.70;55.89
25947;BME280;13745;51.470;9.894;2023-03-12T05:54:01;98903.84;;;3.72;55.96
25947;BME280;13745;51.470;9.894;2023-03-12T05:56:47;98905.59;;;3.76;55.90
25947;BME280;13745;51.470;9.894;2023-03-12T05:59:33;98903.88;;;3.78;55.76
25947;BME280;13745;51.470;9.894;2023-03-12T06:02:20;98902.19;;;3.78;55.61
25947;BME280;13745;51.470;9.894;2023-03-12T06:05:07;98904.75;;;3.78;55.47
25947;BME280;13745;51.470;9.894;2023-03-12T06:07:53;98903.94;;;3.82;55.72
25947;BME280;13745;51.470;9.894;2023-03-12T06:10:39;98898.81;;;3.82;55.73
25947;BME280;13745;51.470;9.894;2023-03-12T06:13:25;98884.28;;;3.86;55.54
25947;BME280;13745;51.470;9.894;2023-03-12T06:16:15;98883.44;;;3.87;55.96
25947;BME280;13745;51.470;9.894;2023-03-12T06:19:04;98889.44;;;3.92;55.40
25947;BME280;13745;51.470;9.894;2023-03-12T06:21:50;98887.75;;;3.94;55.51
25947;BME280;13745;51.470;9.894;2023-03-12T06:24:35;98882.63;;;3.97;55.91
25947;BME280;13745;51.470;9.894;2023-03-12T06:27:23;98886.06;;;3.99;55.85
25947;BME280;13745;51.470;9.894;2023-03-12T06:30:09;98886.09;;;4.04;55.42
25947;BME280;13745;51.470;9.894;2023-03-12T06:32:54;98885.25;;;4.09;55.61
25947;BME280;13745;51.470;9.894;2023-03-12T06:35:40;98884.41;;;4.13;55.79
25947;BME280;13745;51.470;9.894;2023-03-12T06:38:26;98890.44;;;4.18;55.77
25947;BME280;13745;51.470;9.894;2023-03-12T06:41:12;98887.91;;;4.25;55.70
25947;BME280;13745;51.470;9.894;2023-03-12T06:43:57;98887.06;;;4.33;55.15
25947;BME280;13745;51.470;9.894;2023-03-12T06:46:44;98876.84;;;4.39;55.81
25947;BME280;13745;51.470;9.894;2023-03-12T06:49:29;98875.16;;;4.49;55.41
25947;BME280;13745;51.470;9.894;2023-03-12T06:52:17;98870.00;;;4.54;55.46
25947;BME280;13745;51.470;9.894;2023-03-12T06:55:03;98874.31;;;4.61;55.36
25947;BME280;13745;51.470;9.894;2023-03-12T06:57:49;98870.06;;;4.66;55.21
25947;BME280;13745;51.470;9.894;2023-03-12T07:00:34;98864.06;;;4.71;55.14
25947;BME280;13745;51.470;9.894;2023-03-12T07:03:19;98846.09;;;4.79;55.15
25947;BME280;13745;51.470;9.894;2023-03-12T07:06:04;98841.84;;;4.90;55.39
25947;BME280;13745;51.470;9.894;2023-03-12T07:08:57;98846.13;;;5.02;55.14
25947;BME280;13745;51.470;9.894;2023-03-12T07:11:43;98842.69;;;5.15;55.03
25947;BME280;13745;51.470;9.894;2023-03-12T07:14:28;98845.25;;;5.30;55.34
25947;BME280;13745;51.470;9.894;2023-03-12T07:17:13;98838.38;;;5.43;55.09
25947;BME280;13745;51.470;9.894;2023-03-12T07:19:58;98841.78;;;5.51;54.77
25947;BME280;13745;51.470;9.894;2023-03-12T07:22:43;98834.09;;;5.56;54.52
25947;BME280;13745;51.470;9.894;2023-03-12T07:25:30;98833.19;;;5.60;54.84
25947;BME280;13745;51.470;9.894;2023-03-12T07:28:16;98826.34;;;5.67;54.64
25947;BME280;13745;51.470;9.894;2023-03-12T07:31:02;98832.34;;;5.72;54.43
25947;BME280;13745;51.470;9.894;2023-03-12T07:33:47;98824.59;;;5.75;54.50
25947;BME280;13745;51.470;9.894;2023-03-12T07:36:32;98820.28;;;5.77;54.14
25947;BME280;13745;51.470;9.894;2023-03-12T07:39:17;98824.59;;;5.79;54.11
25947;BME280;13745;51.470;9.894;2023-03-12T07:42:05;98822.84;;;5.84;53.93
25947;BME280;13745;51.470;9.894;2023-03-12T07:44:50;98820.28;;;5.89;54.24
25947;BME280;13745;51.470;9.894;2023-03-12T07:47:35;98814.28;;;5.91;54.24
25947;BME280;13745;51.470;9.894;2023-03-12T07:50:20;98812.53;;;5.95;54.13
25947;BME280;13745;51.470;9.894;2023-03-12T07:53:05;98822.81;;;6.00;54.24
25947;BME280;13745;51.470;9.894;2023-03-12T07:55:51;98815.94;;;6.08;54.09
25947;BME280;13745;51.470;9.894;2023-03-12T07:58:38;98815.91;;;6.15;54.11
25947;BME280;13745;51.470;9.894;2023-03-12T08:01:24;98824.41;;;6.27;54.13
25947;BME280;13745;51.470;9.894;2023-03-12T08:04:14;98822.69;;;6.32;53.86
25947;BME280;13745;51.470;9.894;2023-03-12T08:07:00;98811.47;;;6.36;53.55
25947;BME280;13745;51.470;9.894;2023-03-12T08:09:46;98807.19;;;6.39;53.69
25947;BME280;13745;51.470;9.894;2023-03-12T08:12:31;98811.47;;;6.42;53.47
25947;BME280;13745;51.470;9.894;2023-03-12T08:15:18;98810.59;;;6.43;53.41
25947;BME280;13745;51.470;9.894;2023-03-12T08:18:04;98814.88;;;6.47;53.78
25947;BME280;13745;51.470;9.894;2023-03-12T08:20:49;98817.41;;;6.50;53.54
25947;BME280;13745;51.470;9.894;2023-03-12T08:23:35;98819.13;;;6.51;53.49
25947;BME280;13745;51.470;9.894;2023-03-12T08:26:21;98804.56;;;6.48;53.37
25947;BME280;13745;51.470;9.894;2023-03-12T08:29:06;98803.72;;;6.46;53.61
25947;BME280;13745;51.470;9.894;2023-03-12T08:31:52;98802.00;;;6.47;53.49
25947;BME280;13745;51.470;9.894;2023-03-12T08:34:37;98805.38;;;6.52;53.43
25947;BME280;13745;51.470;9.894;2023-03-12T08:37:22;98802.78;;;6.54;53.73
25947;BME280;13745;51.470;9.894;2023-03-12T08:40:08;98806.19;;;6.59;53.70
25947;BME280;13745;51.470;9.894;2023-03-12T08:42:55;98798.44;;;6.62;53.23
25947;BME280;13745;51.470;9.894;2023-03-12T08:45:40;98797.53;;;6.69;53.44
25947;BME280;13745;51.470;9.894;2023-03-12T08:48:28;98792.31;;;6.78;53.56
25947;BME280;13745;51.470;9.894;2023-03-12T08:51:13;98799.09;;;6.90;53.16
25947;BME280;13745;51.470;9.894;2023-03-12T08:53:59;98789.56;;;7.01;53.45
25947;BME280;13745;51.470;9.894;2023-03-12T08:56:47;98797.19;;;7.13;53.78
25947;BME280;13745;51.470;9.894;2023-03-12T08:59:34;98791.94;;;7.24;53.58
25947;BME280;13745;51.470;9.894;2023-03-12T09:02:20;98780.69;;;7.31;53.20
25947;BME280;13745;51.470;9.894;2023-03-12T09:05:06;98775.44;;;7.40;52.62
25947;BME280;13745;51.470;9.894;2023-03-12T09:07:51;98777.06;;;7.49;52.75
25947;BME280;13745;51.470;9.894;2023-03-12T09:10:37;98776.94;;;7.59;52.93
25947;BME280;13745;51.470;9.894;2023-03-12T09:13:23;98768.25;;;7.70;53.28
25947;BME280;13745;51.470;9.894;2023-03-12T09:16:08;98774.09;;;7.82;52.46
25947;BME280;13745;51.470;9.894;2023-03-12T09:18:53;98764.50;;;7.94;52.93
25947;BME280;13745;51.470;9.894;2023-03-12T09:21:40;98764.38;;;8.01;52.82
25947;BME280;13745;51.470;9.894;2023-03-12T09:24:25;98755.69;;;8.11;52.17
25947;BME280;13745;51.470;9.894;2023-03-12T09:27:10;98751.25;;;8.20;52.56
25947;BME280;13745;51.470;9.894;2023-03-12T09:29:55;98744.28;;;8.25;51.72
25947;BME280;13745;51.470;9.894;2023-03-12T09:32:40;98738.16;;;8.32;51.80
25947;BME280;13745;51.470;9.894;2023-03-12T09:35:27;98741.53;;;8.38;51.96
25947;BME280;13745;51.470;9.894;2023-03-12T09:38:15;98731.97;;;8.45;51.53
25947;BME280;13745;51.470;9.894;2023-03-12T09:41:03;98734.41;;;8.54;51.49
25947;BME280;13745;51.470;9.894;2023-03-12T09:43:52;98731.59;;;8.68;51.85
25947;BME280;13745;51.470;9.894;2023-03-12T09:46:42;98719.28;;;8.84;51.27
25947;BME280;13745;51.470;9.894;2023-03-12T09:49:33;98725.00;;;9.03;51.35
25947;BME280;13745;51.470;9.894;2023-03-12T09:52:23;98721.28;;;9.16;51.74
25947;BME280;13745;51.470;9.894;2023-03-12T09:55:13;98720.00;;;9.38;51.46
25947;BME280;13745;51.470;9.894;2023-03-12T09:57:59;98729.06;;;9.59;50.72
25947;BME280;13745;51.470;9.894;2023-03-12T10:00:44;98722.03;;;9.66;50.87
25947;BME280;13745;51.470;9.894;2023-03-12T10:03:45;98728.25;;;9.57;50.27
25947;BME280;13745;51.470;9.894;2023-03-12T10:06:38;98725.00;;;9.47;50.65
25947;BME280;13745;51.470;9.894;2023-03-12T10:09:37;98715.69;;;9.39;50.39
25947;BME280;13745;51.470;9.894;2023-03-12T10:12:33;98718.28;;;9.39;50.20
25947;BME280;13745;51.470;9.894;2023-03-12T10:15:30;98717.44;;;9.38;50.67
25947;BME280;13745;51.470;9.894;2023-03-12T10:18:27;98715.63;;;9.42;50.34
25947;BME280;13745;51.470;9.894;2023-03-12T10:21:19;98717.25;;;9.47;50.83
25947;BME280;13745;51.470;9.894;2023-03-12T10:24:19;98700.84;;;9.48;50.82
25947;BME280;13745;51.470;9.894;2023-03-12T10:27:10;98706.06;;;9.47;50.71
25947;BME280;13745;51.470;9.894;2023-03-12T10:29:57;98716.50;;;9.41;50.90
25947;BME280;13745;51.470;9.894;2023-03-12T10:32:46;98708.97;;;9.30;50.63
25947;BME280;13745;51.470;9.894;2023-03-12T10:35:32;98722.91;;;9.21;51.01
25947;BME280;13745;51.470;9.894;2023-03-12T10:38:25;98717.09;;;9.10;50.98
25947;BME280;13745;51.470;9.894;2023-03-12T10:41:13;98725.72;;;9.09;51.08
25947;BME280;13745;51.470;9.894;2023-03-12T10:44:02;98726.66;;;9.05;51.80
25947;BME280;13745;51.470;9.894;2023-03-12T10:47:00;98718.13;;;9.00;51.73
25947;BME280;13745;51.470;9.894;2023-03-12T10:49:47;98719.13;;;8.93;52.33
25947;BME280;13745;51.470;9.894;2023-03-12T10:52:34;98721.75;;;8.90;52.14
25947;BME280;13745;51.470;9.894;2023-03-12T10:55:23;98721.78;;;8.88;52.63
25947;BME280;13745;51.470;9.894;2023-03-12T10:58:21;98716.69;;;8.84;53.09
25947;BME280;13745;51.470;9.894;2023-03-12T11:01:16;98725.31;;;8.83;53.20
25947;BME280;13745;51.470;9.894;2023-03-12T11:04:16;98727.13;;;8.79;54.03
25947;BME280;13745;51.470;9.894;2023-03-12T11:07:15;98716.81;;;8.78;53.83
25947;BME280;13745;51.470;9.894;2023-03-12T11:10:15;98713.38;;;8.76;54.28
25947;BME280;13745;51.470;9.894;2023-03-12T11:13:02;98700.50;;;8.74;54.44
25947;BME280;13745;51.470;9.894;2023-03-12T11:15:47;98704.78;;;8.75;54.56
25947;BME280;13745;51.470;9.894;2023-03-12T11:18:34;98690.22;;;8.71;54.49
25947;BME280;13745;51.470;9.894;2023-03-12T11:21:24;98699.72;;;8.70;54.79
25947;BME280;13745;51.470;9.894;2023-03-12T11:24:10;98701.44;;;8.70;55.51
25947;BME280;13745;51.470;9.894;2023-03-12T11:26:58;98696.31;;;8.67;55.70
25947;BME280;13745;51.470;9.894;2023-03-12T11:29:48;98703.28;;;8.63;55.54
25947;BME280;13745;51.470;9.894;2023-03-12T11:32:36;98681.84;;;8.57;55.72
25947;BME280;13745;51.470;9.894;2023-03-12T11:35:31;98681.06;;;8.53;56.56
25947;BME280;13745;51.470;9.894;2023-03-12T11:38:25;98690.53;;;8.53;56.33
25947;BME280;13745;51.470;9.894;2023-03-12T11:41:25;98681.06;;;8.53;56.49
25947;BME280;13745;51.470;9.894;2023-03-12T11:44:22;98688.88;;;8.49;57.17
25947;BME280;13745;51.470;9.894;2023-03-12T11:47:18;98684.66;;;8.44;56.99
25947;BME280;13745;51.470;9.894;2023-03-12T11:50:24;98681.22;;;8.42;57.63
25947;BME280;13745;51.470;9.894;2023-03-12T11:53:24;98679.56;;;8.38;57.10
25947;BME280;13745;51.470;9.894;2023-03-12T11:56:20;98679.59;;;8.34;57.08
25947;BME280;13745;51.470;9.894;2023-03-12T11:59:25;98665.94;;;8.29;57.72
25947;BME280;13745;51.470;9.894;2023-03-12T12:02:41;98660.75;;;8.27;57.75
25947;BME280;13745;51.470;9.894;2023-03-12T12:05:35;98645.34;;;8.24;57.95
25947;BME280;13745;51.470;9.894;2023-03-12T12:08:34;98636.66;;;8.30;58.38
25947;BME280;13745;51.470;9.894;2023-03-12T12:11:28;98636.59;;;8.33;58.23
25947;BME280;13745;51.470;9.894;2023-03-12T12:14:28;98633.13;;;8.37;58.48
25947;BME280;13745;51.470;9.894;2023-03-12T12:17:24;98622.78;;;8.37;58.34
25947;BME280;13745;51.470;9.894;2023-03-12T12:20:20;98619.38;;;8.36;58.50
25947;BME280;13745;51.470;9.894;2023-03-12T12:23:15;98622.78;;;8.34;58.73
25947;BME280;13745;51.470;9.894;2023-03-12T12:26:06;98623.69;;;8.33;59.10
25947;BME280;13745;51.470;9.894;2023-03-12T12:29:17;98620.25;;;8.32;58.98
25947;BME280;13745;51.470;9.894;2023-03-12T12:32:09;98630.69;;;8.25;59.15
25947;BME280;13745;51.470;9.894;2023-03-12T12:35:04;98634.31;;;8.14;59.04
25947;BME280;13745;51.470;9.894;2023-03-12T12:37:55;98624.16;;;8.04;59.69
25947;BME280;13745;51.470;9.894;2023-03-12T12:40:45;98612.16;;;8.00;60.15
25947;BME280;13745;51.470;9.894;2023-03-12T12:43:36;98606.25;;;7.95;59.63
25947;BME280;13745;51.470;9.894;2023-03-12T12:46:24;98604.50;;;7.94;60.11
25947;BME280;13745;51.470;9.894;2023-03-12T12:49:13;98589.88;;;7.94;60.73
25947;BME280;13745;51.470;9.894;2023-03-12T12:52:04;98599.34;;;7.95;60.13
25947;BME280;13745;51.470;9.894;2023-03-12T12:54:56;98591.59;;;7.95;60.90
25947;BME280;13745;51.470;9.894;2023-03-12T12:57:44;98601.81;;;8.01;60.59
25947;BME280;13745;51.470;9.894;2023-03-12T13:00:41;98588.91;;;8.01;61.03
25947;BME280;13745;51.470;9.894;2023-03-12T13:03:29;98592.31;;;8.05;61.42
25947;BME280;13745;51.470;9.894;2023-03-12T13:06:16;98594.84;;;8.08;61.21
25947;BME280;13745;51.470;9.894;2023-03-12T13:09:13;98588.75;;;8.12;61.63
25947;BME280;13745;51.470;9.894;2023-03-12T13:12:06;98582.63;;;8.17;61.59
25947;BME280;13745;51.470;9.894;2023-03-12T13:14:52;98579.13;;;8.22;61.53
25947;BME280;13745;51.470;9.894;2023-03-12T13:18:02;98582.44;;;8.30;61.90
25947;BME280;13745;51.470;9.894;2023-03-12T13:21:11;98564.25;;;8.34;62.13
25947;BME280;13745;51.470;9.894;2023-03-12T13:24:06;98568.56;;;8.37;62.41
25947;BME280;13745;51.470;9.894;2023-03-12T13:26:59;98577.13;;;8.39;62.29
25947;BME280;13745;51.470;9.894;2023-03-12T13:29:48;98577.03;;;8.43;61.98
25947;BME280;13745;51.470;9.894;2023-03-12T13:33:05;98579.53;;;8.50;62.37
25947;BME280;13745;51.470;9.894;2023-03-12T13:36:10;98569.13;;;8.54;62.78
25947;BME280;13745;51.470;9.894;2023-03-12T13:39:17;98574.19;;;8.59;62.97
25947;BME280;13745;51.470;9.894;2023-03-12T13:42:25;98571.53;;;8.63;63.17
25947;BME280;13745;51.470;9.894;2023-03-12T13:45:22;98568.00;;;8.67;62.98
25947;BME280;13745;51.470;9.894;2023-03-12T13:48:14;98569.66;;;8.71;62.87
25947;BME280;13745;51.470;9.894;2023-03-12T13:51:09;98560.78;;;8.83;63.51
25947;BME280;13745;51.470;9.894;2023-03-12T13:53:58;98549.47;;;8.90;62.84
25947;BME280;13745;51.470;9.894;2023-03-12T13:56:52;98549.31;;;8.98;62.93
25947;BME280;13745;51.470;9.894;2023-03-12T13:59:43;98551.78;;;9.04;63.42
25947;BME280;13745;51.470;9.894;2023-03-12T14:02:31;98543.00;;;9.11;63.51
25947;BME280;13745;51.470;9.894;2023-03-12T14:05:20;98540.28;;;9.19;63.19
25947;BME280;13745;51.470;9.894;2023-03-12T14:08:12;98546.97;;;9.26;63.60
25947;BME280;13745;51.470;9.894;2023-03-12T14:11:11;98553.81;;;9.30;63.24
25947;BME280;13745;51.470;9.894;2023-03-12T14:14:16;98560.56;;;9.37;63.06
25947;BME280;13745;51.470;9.894;2023-03-12T14:17:14;98545.81;;;9.41;63.09
25947;BME280;13745;51.470;9.894;2023-03-12T14:20:01;98545.72;;;9.45;63.18
25947;BME280;13745;51.470;9.894;2023-03-12T14:22:52;98542.28;;;9.45;63.04
25947;BME280;13745;51.470;9.894;2023-03-12T14:25:40;98530.91;;;9.50;63.13
25947;BME280;13745;51.470;9.894;2023-03-12T14:28:28;98536.78;;;9.58;63.43
25947;BME280;13745;51.470;9.894;2023-03-12T14:31:16;98529.69;;;9.67;63.34
25947;BME280;13745;51.470;9.894;2023-03-12T14:34:09;98523.44;;;9.77;63.23
25947;BME280;13745;51.470;9.894;2023-03-12T14:37:00;98528.34;;;9.88;62.88
25947;BME280;13745;51.470;9.894;2023-03-12T14:39:51;98521.13;;;9.99;62.91
25947;BME280;13745;51.470;9.894;2023-03-12T14:42:38;98514.88;;;10.07;63.14
25947;BME280;13745;51.470;9.894;2023-03-12T14:45:23;98524.19;;;10.14;63.32
25947;BME280;13745;51.470;9.894;2023-03-12T14:48:09;98519.75;;;10.20;63.68
25947;BME280;13745;51.470;9.894;2023-03-12T14:50:55;98512.72;;;10.26;62.95
25947;BME280;13745;51.470;9.894;2023-03-12T14:53:40;98511.63;;;10.35;63.34
25947;BME280;13745;51.470;9.894;2023-03-12T14:56:28;98498.47;;;10.43;63.13
25947;BME280;13745;51.470;9.894;2023-03-12T14:59:24;98512.94;;;10.50;63.37
25947;BME280;13745;51.470;9.894;2023-03-12T15:02:13;98498.22;;;10.52;63.09
25947;BME280;13745;51.470;9.894;2023-03-12T15:05:00;98508.50;;;10.55;63.33